Latest Weather Observations for Bunbury

IDW60801

Issued at 5:35 pm WST Thursday 18 September 2014 (issued every 30 minutes, with the page automatically refreshed every 10 minutes)

About weather observations | Map of weather stations | Latest weather observations for WA | Other Formats
Station Details ID: 009965 Name: BUNBURY Lat: -33.36 Lon: 115.64 Height: 5.2 m
Data from the previous 72 hours. | See also: Recent months at Bunbury
Date/Time
WST
Temp
°C
App
Temp
°C
Dew
Point
Rel
Hum
%
Delta-T
°C
Wind Press
QNH
hPa
Press
MSL
hPa
Rain
since 9 am
mm
Dir
 
Spd
km/h
Gust
km/h
Spd
kts
Gust
kts
18/05:30pm 18.0 15.0 12.5 70 3.1 WSW 20 30 11 16 1018.1 1018.0 0.0
18/05:00pm 18.9 16.3 13.3 70 3.2 WSW 19 28 10 15 1017.9 1017.8 0.0
18/04:30pm 19.6 17.7 14.2 71 3.1 WSW 17 28 9 15 1017.4 1017.3 0.0
18/04:00pm 20.0 17.6 14.4 70 3.2 W 20 30 11 16 1017.3 1017.2 0.0
18/03:30pm 20.4 17.7 14.7 70 3.3 W 22 33 12 18 1017.0 1016.9 0.0
18/03:00pm 20.6 18.1 15.2 71 3.2 W 22 32 12 17 1016.9 1016.8 0.0
18/02:30pm 21.1 19.6 15.4 70 3.4 W 17 28 9 15 1016.9 1016.8 0.0
18/02:00pm 21.0 19.3 15.8 72 3.1 W 19 26 10 14 1017.1 1017.0 0.0
18/01:30pm 21.0 19.5 15.3 70 3.4 W 17 24 9 13 1017.2 1017.1 0.0
18/01:00pm 21.7 20.2 14.1 62 4.4 WSW 15 22 8 12 1017.1 1017.0 0.0
18/12:30pm 21.3 19.9 14.5 65 4.0 WSW 15 20 8 11 1017.1 1017.0 0.0
18/12:00pm 21.2 20.5 15.3 69 3.5 WSW 13 19 7 10 1017.4 1017.3 0.0
18/11:30am 21.5 20.9 15.6 69 3.5 WSW 13 17 7 9 1017.8 1017.7 0.0
18/11:00am 21.2 21.2 15.3 69 3.5 WSW 9 15 5 8 1017.8 1017.7 0.0
18/10:30am 20.1 19.6 14.9 72 3.0 WSW 11 15 6 8 1018.1 1018.0 0.0
18/10:00am 20.2 20.4 14.1 68 3.5 SSW 6 11 3 6 1018.1 1018.0 0.0
18/09:30am 18.9 19.0 14.0 73 2.8 SSW 6 9 3 5 1018.2 1018.1 0.0
18/09:00am 17.2 16.8 12.9 76 2.4 S 7 11 4 6 1018.3 1018.2 0.0
18/08:30am 15.9 15.4 13.9 88 1.1 SSE 9 13 5 7 1018.3 1018.2 0.0
18/08:00am 13.9 12.8 13.1 95 0.4 S 11 15 6 8 1018.3 1018.2 0.0
18/07:30am 13.0 12.6 12.4 96 0.3 S 6 11 3 6 1017.9 1017.8 0.0
18/07:00am 11.4 10.5 10.8 96 0.3 S 6 9 3 5 1017.6 1017.5 0.0
18/06:30am 9.8 8.3 9.0 95 0.4 SSW 7 9 4 5 1017.4 1017.3 0.0
18/06:00am 9.8 8.3 9.0 95 0.4 S 7 9 4 5 1017.3 1017.2 0.0
18/05:30am 9.9 8.6 9.1 95 0.4 SSW 6 7 3 4 1017.2 1017.1 0.0
18/05:00am 10.5 9.1 9.7 95 0.4 SSW 7 9 4 5 1016.9 1016.8 0.0
18/04:30am 10.9 9.6 10.1 95 0.4 S 7 9 4 5 1016.9 1016.8 0.0
18/04:00am 11.0 10.0 10.2 95 0.4 S 6 7 3 4 1017.0 1016.9 0.0
18/03:30am 11.4 10.3 10.6 95 0.4 S 7 9 4 5 1016.8 1016.7 0.0
18/03:00am 11.6 10.5 10.7 94 0.5 S 7 9 4 5 1016.9 1016.8 0.0
18/02:30am 11.7 10.8 10.8 94 0.5 S 6 9 3 5 1017.1 1017.0 0.0
18/02:00am 11.7 10.8 10.8 94 0.5 S 6 7 3 4 1017.2 1017.1 0.0
18/01:30am 12.0 11.2 11.1 94 0.5 SSW 6 7 3 4 1017.3 1017.2 0.0
18/01:00am 11.9 11.0 10.8 93 0.6 SSW 6 7 3 4 1017.4 1017.3 0.0
18/12:30am 11.7 11.1 10.4 92 0.7 S 4 7 2 4 1017.3 1017.2 0.0
18/12:00am 12.6 12.2 11.2 91 0.7 S 4 6 2 3 1017.4 1017.3 0.0
 
Date/Time
WST
Temp
°C
App
Temp
°C
Dew
Point
Rel
Hum
%
Delta-T
°C
Wind Press
QNH
hPa
Press
MSL
hPa
Rain
since 9 am
mm
Dir
 
Spd
km/h
Gust
km/h
Spd
kts
Gust
kts
17/11:30pm 13.0 12.7 11.6 91 0.7 S 4 7 2 4 1017.5 1017.4 0.0
17/11:00pm 13.2 12.4 11.6 90 0.8 SSW 7 9 4 5 1017.5 1017.4 0.0
17/10:30pm 13.7 13.0 11.9 89 1.0 SSW 7 9 4 5 1017.6 1017.5 0.0
17/10:00pm 13.9 12.8 11.8 87 1.1 S 9 11 5 6 1017.5 1017.4 0.0
17/09:30pm 15.1 14.0 12.1 82 1.6 S 9 13 5 7 1017.6 1017.5 0.0
17/09:00pm 15.6 14.2 12.2 80 1.9 S 11 15 6 8 1017.6 1017.5 0.0
17/08:30pm 16.0 15.0 12.4 79 2.0 S 9 15 5 8 1017.3 1017.2 0.0
17/08:00pm 16.1 14.7 12.3 78 2.1 S 11 15 6 8 1017.0 1016.9 0.0
17/07:30pm 16.5 15.4 12.1 75 2.4 S 9 11 5 6 1016.6 1016.5 0.0
17/07:00pm 16.8 15.9 12.7 77 2.3 S 9 13 5 7 1016.0 1015.9 0.0
17/06:30pm 17.0 17.2 12.9 77 2.3 SSW 4 7 2 4 1015.6 1015.5 0.0
17/06:00pm 18.4 18.2 13.1 71 3.0 SW 6 7 3 4 1015.3 1015.2 0.0
17/05:30pm 19.7 19.1 12.2 62 4.2 SW 7 11 4 6 1015.0 1014.9 0.0
17/05:00pm 20.3 19.0 11.2 56 5.0 WSW 9 15 5 8 1015.1 1015.0 0.0
17/04:30pm 21.2 19.7 11.8 55 5.2 WSW 11 20 6 11 1015.0 1014.9 0.0
17/04:00pm 21.6 20.0 12.7 57 5.1 WSW 13 19 7 10 1014.7 1014.6 0.0
17/03:30pm 21.5 19.7 12.1 55 5.3 WSW 13 19 7 10 1014.7 1014.6 0.0
17/03:00pm 22.3 20.2 11.1 49 6.2 WSW 13 19 7 10 1014.7 1014.6 0.0
17/02:30pm 22.6 21.5 13.1 55 5.5 WSW 11 15 6 8 1014.7 1014.6 0.0
17/02:00pm 22.2 21.1 13.0 56 5.3 WSW 11 15 6 8 1014.9 1014.8 0.0
17/01:30pm 21.8 20.2 13.9 61 4.6 WSW 15 19 8 10 1015.1 1015.0 0.0
17/01:00pm 22.2 21.8 14.1 60 4.7 WSW 9 11 5 6 1015.4 1015.3 0.0
17/12:30pm 21.7 20.9 14.1 62 4.4 WSW 11 17 6 9 1015.8 1015.7 0.0
17/12:00pm 21.8 20.7 13.2 58 4.9 SSW 11 22 6 12 1016.2 1016.1 0.0
17/11:30am 21.3 19.6 12.4 57 5.0 S 13 19 7 10 1016.7 1016.6 0.0
17/11:00am 20.5 18.9 11.4 56 5.0 SSE 11 17 6 9 1017.1 1017.0 0.0
17/10:30am 20.4 19.7 12.1 59 4.6 SSE 7 13 4 7 1017.4 1017.3 0.0
17/10:00am 18.8 17.9 11.4 62 4.0 SSE 7 11 4 6 1017.8 1017.7 0.0
17/09:30am 18.0 17.3 11.3 65 3.6 SE 6 9 3 5 1017.8 1017.7 0.0
17/09:00am 17.0 15.9 10.6 66 3.4 ESE 7 13 4 7 1018.1 1018.0 0.0
17/08:30am 15.2 13.4 9.6 69 2.9 ESE 9 13 5 7 1018.1 1018.0 0.0
17/08:00am 13.6 11.6 8.7 72 2.5 SE 9 13 5 7 1018.1 1018.0 0.0
17/07:30am 12.1 10.0 8.2 77 1.9 SE 9 13 5 7 1018.0 1017.9 0.0
17/07:00am 10.4 8.5 7.6 83 1.3 SE 7 11 4 6 1017.8 1017.7 0.0
17/06:30am 9.3 7.3 7.1 86 1.0 SE 7 13 4 7 1017.6 1017.5 0.0
17/06:00am 9.4 7.0 7.0 85 1.1 SE 9 15 5 8 1017.6 1017.5 0.0
17/05:30am 9.7 7.7 7.1 84 1.2 SE 7 13 4 7 1017.4 1017.3 0.0
17/05:00am 9.4 7.0 7.0 85 1.1 SE 9 13 5 7 1017.2 1017.1 0.0
17/04:30am 9.2 7.1 6.8 85 1.1 SE 7 11 4 6 1017.1 1017.0 0.0
17/04:00am 9.7 7.3 7.0 83 1.3 SE 9 13 5 7 1017.1 1017.0 0.0
17/03:30am 10.1 8.1 7.0 81 1.5 ESE 7 11 4 6 1017.0 1016.9 0.0
17/03:00am 10.8 8.6 7.7 81 1.5 SSE 9 15 5 8 1017.2 1017.1 0.0
17/02:30am 10.4 8.4 7.3 81 1.5 SE 7 9 4 5 1017.1 1017.0 0.0
17/02:00am 10.6 8.6 7.3 80 1.6 SE 7 9 4 5 1017.3 1017.2 0.0
17/01:30am 10.7 8.3 7.2 79 1.7 SE 9 13 5 7 1017.4 1017.3 0.0
17/01:00am 11.1 9.2 7.4 78 1.8 SE 7 9 4 5 1017.6 1017.5 0.0
17/12:30am 10.8 8.6 6.4 74 2.1 ESE 7 9 4 5 1017.7 1017.6 0.0
17/12:00am 11.6 9.5 6.7 72 2.3 SE 7 9 4 5 1017.9 1017.8 0.0
 
Date/Time
WST
Temp
°C
App
Temp
°C
Dew
Point
Rel
Hum
%
Delta-T
°C
Wind Press
QNH
hPa
Press
MSL
hPa
Rain
since 9 am
mm
Dir
 
Spd
km/h
Gust
km/h
Spd
kts
Gust
kts
16/11:30pm 12.3 9.9 6.8 69 2.6 SE 9 11 5 6 1018.0 1017.9 0.0
16/11:00pm 13.0 10.1 6.6 65 3.1 SE 11 15 6 8 1018.2 1018.1 0.0
16/10:30pm 13.3 10.9 6.9 65 3.1 SE 9 13 5 7 1018.5 1018.4 0.0
16/10:00pm 13.2 10.8 7.2 67 2.9 SE 9 15 5 8 1018.7 1018.6 0.0
16/09:30pm 13.6 11.3 7.6 67 2.9 SE 9 15 5 8 1018.7 1018.6 0.0
16/09:00pm 13.3 11.4 7.5 68 2.8 SSE 7 11 4 6 1018.8 1018.7 0.0
16/08:30pm 13.9 11.7 7.7 66 3.1 SSE 9 13 5 7 1018.8 1018.7 0.0
16/08:00pm 14.0 12.4 7.8 66 3.1 SSE 6 9 3 5 1018.6 1018.5 0.0
16/07:30pm 14.9 12.7 7.9 63 3.5 SE 9 13 5 7 1018.4 1018.3 0.0
16/07:00pm 15.7 13.6 8.2 61 3.8 SE 9 13 5 7 1018.2 1018.1 0.0
16/06:30pm 16.3 14.3 8.5 60 4.0 SSE 9 17 5 9 1018.1 1018.0 0.0
16/06:00pm 17.3 15.3 8.7 57 4.4 SSE 9 15 5 8 1017.9 1017.8 0.0
16/05:30pm 18.9 16.4 8.3 50 5.5 SE 11 17 6 9 1017.7 1017.6 0.0
16/05:00pm 20.3 16.9 7.7 44 6.5 ESE 15 22 8 12 1017.5 1017.4 0.0
16/04:30pm 20.9 18.0 8.2 44 6.6 ESE 13 17 7 9 1017.5 1017.4 0.0
16/04:00pm 21.4 18.1 6.5 38 7.5 E 13 22 7 12 1017.7 1017.6 0.0
16/03:30pm 21.6 18.5 7.1 39 7.4 ESE 13 20 7 11 1017.7 1017.6 0.0
16/03:00pm 21.5 18.4 7.3 40 7.3 SE 13 20 7 11 1017.8 1017.7 0.0
16/02:30pm 21.9 19.9 8.8 43 6.9 ESE 9 20 5 11 1018.0 1017.9 0.0
16/02:00pm 21.2 16.6 6.7 39 7.3 ESE 20 24 11 13 1018.2 1018.1 0.0
16/01:30pm 20.9 17.8 7.2 41 7.0 E 13 28 7 15 1018.4 1018.3 0.0
16/01:00pm 20.8 16.7 7.8 43 6.7 ENE 19 26 10 14 1018.9 1018.8 0.0
16/12:30pm 20.4 16.4 8.1 45 6.4 E 19 28 10 15 1019.4 1019.3 0.0
16/12:00pm 20.1 16.4 8.1 46 6.2 E 17 24 9 13 1020.1 1020.0 0.0
16/11:30am 19.6 15.9 8.0 47 6.0 E 17 24 9 13 1020.9 1020.8 0.0
16/11:00am 18.8 14.9 8.5 51 5.3 E 19 26 10 14 1021.5 1021.5 0.0
16/10:30am 18.1 14.7 9.2 56 4.7 ENE 17 24 9 13 1021.7 1021.7 0.0
16/10:00am 17.1 13.0 8.0 55 4.6 ESE 19 30 10 16 1022.5 1022.5 0.0
16/09:30am 16.4 13.3 8.9 61 3.9 E 15 24 8 13 1022.9 1022.9 0.0
16/09:00am 16.0 12.7 9.7 66 3.3 E 17 26 9 14 1022.8 1022.8 0.0
16/08:30am 14.7 11.5 8.6 67 3.1 E 15 26 8 14 1023.0 1023.0 0.0
16/08:00am 14.0 12.5 8.6 70 2.7 E 6 17 3 9 1023.0 1023.0 0.0
16/07:30am 11.3 11.0 8.5 83 1.4 CALM 0 0 0 0 1023.0 1023.0 0.0
16/07:00am 8.5 7.7 6.6 88 0.9 CALM 0 0 0 0 1022.9 1022.9 0.0
16/06:30am 7.7 5.6 5.8 88 0.9 SE 6 7 3 4 1022.6 1022.6 0.0
16/06:00am 7.7 5.4 5.5 86 1.0 SE 7 9 4 5 1022.3 1022.3 0.0
16/05:30am 8.6 5.6 6.1 84 1.1 SE 11 13 6 7 1021.9 1021.9 0.0
16/05:00am 9.4 6.2 6.7 83 1.3 SSE 13 19 7 10 1022.0 1022.0 0.0
16/04:30am 9.5 6.6 6.6 82 1.4 SSE 11 15 6 8 1021.9 1021.9 0.0
16/04:00am 9.6 6.7 6.5 81 1.4 SE 11 15 6 8 1021.9 1021.9 0.0
16/03:30am 10.2 6.6 6.7 79 1.6 SE 15 20 8 11 1022.0 1022.0 0.0
16/03:00am 10.6 6.6 6.7 77 1.8 SE 17 24 9 13 1022.1 1022.1 0.0
16/02:30am 10.6 6.6 6.6 76 1.9 SE 17 24 9 13 1022.2 1022.2 0.0
16/02:00am 10.6 6.9 6.2 74 2.0 SE 15 20 8 11 1022.2 1022.2 0.0
16/01:30am 10.9 6.4 5.9 71 2.3 SE 19 26 10 14 1022.4 1022.4 0.0
16/01:00am 10.9 6.4 6.1 72 2.2 SE 19 30 10 16 1022.5 1022.5 0.0
16/12:30am 10.6 7.6 6.0 73 2.1 SE 11 17 6 9 1022.9 1022.9 0.0
16/12:00am 10.9 7.9 6.1 72 2.2 SE 11 17 6 9 1023.2 1023.2 0.0
 
Date/Time
WST
Temp
°C
App
Temp
°C
Dew
Point
Rel
Hum
%
Delta-T
°C
Wind Press
QNH
hPa
Press
MSL
hPa
Rain
since 9 am
mm
Dir
 
Spd
km/h
Gust
km/h
Spd
kts
Gust
kts
15/11:30pm 11.3 8.0 6.4 72 2.3 SE 13 19 7 10 1023.1 1023.1 0.0
15/11:00pm 11.7 8.1 6.6 71 2.4 SE 15 22 8 12 1023.2 1023.2 0.0
15/10:30pm 11.8 7.8 6.5 70 2.5 SSE 17 22 9 12 1023.5 1023.5 0.0
15/10:00pm 12.2 8.3 7.1 71 2.4 SSE 17 26 9 14 1023.7 1023.7 0.0
15/09:30pm 12.1 9.0 7.4 73 2.3 SSE 13 24 7 13 1023.8 1023.8 0.0
15/09:00pm 12.7 9.3 7.8 72 2.4 SSE 15 22 8 12 1023.7 1023.7 0.0
15/08:30pm 12.7 9.2 7.4 70 2.6 SSE 15 22 8 12 1023.6 1023.6 0.0
15/08:00pm 13.3 9.5 7.5 68 2.8 S 17 24 9 13 1023.5 1023.5 0.0
15/07:30pm 13.9 10.1 7.7 66 3.1 S 17 26 9 14 1023.3 1023.3 0.0
15/07:00pm 14.6 10.9 8.1 65 3.2 S 17 24 9 13 1023.1 1023.1 0.0
15/06:30pm 15.5 12.6 9.6 68 3.1 S 15 22 8 12 1022.9 1022.9 0.0
15/06:00pm 16.1 13.5 9.5 65 3.4 SW 13 20 7 11 1022.7 1022.7 0.0

Other Formats:

Comma delimited format used in spreadsheet applications
http://www.bom.gov.au/fwo/IDW60801/IDW60801.94604.axf

JavaScript Object Notation format (JSON) in row-major order
http://www.bom.gov.au/fwo/IDW60801/IDW60801.94604.json